Terminal Aerodrome Forecast
Issued by NWS Wichita, KS

Home | Current Version | Previous Version | Graphics & Text | Print | Product List | Glossary On
Versions: 1 2 3 4 5 6 7 8 9 10 11 12 13 14 15 16 17 18 19 20 21 22
000
FTUS43 KICT 150520
TAFICT
TAF
KICT 150520Z 1506/1606 16005KT P6SM SCT150
     FM150900 15004KT 3SM BR OVC003
     FM151300 16006KT 6SM BR BKN008
     FM151400 16008KT P6SM SCT015
     FM151800 17011KT P6SM SCT040=

USA.gov is the U.S. government's official web portal to all federal, state and local government web resources and services.